Главная страница
METAR-TAF:

METAR-TAF

Аэропорты :

Кристиансанн, Норвегия

широта: 58-12N, долгота: 008-05E, высота над уровнем моря: 1 м

Текущие метеонаблюдения

Эта сводка был подготовлена 24 минут назад, в 14:20 UTC
Ветер 14 Узел от северо-восточный
Температура 5°C
Влажность 93%
Давление 1018 hPa
Видимость 10 км и более
Рассеянная облачность на высоте 1100 фута

METAR: ENCN 151420Z 04014KT 9999 BKN011 05/04 Q1018

Время: 15:44 (14:44 UTC)

Прогноз

Эта сводка был подготовлена 3 часа и 44 минут назад, в 11:00 UTC
Прогноз действительный с 15-го 12 UTC до 15-го 21 UTC
Ветер 10 Узел от северо-восточный
Видимость 10 км и более
Рассеянная облачность на высоте 800 фута
временами
С 15-го 12 UTC до 15-го 21 UTC
небольшая облачность на высоте 800 фута
Рассеянная облачность на высоте 2000 фута

TAF: ENCN 151100Z 1512/1521 04010KT 9999 BKN008 TEMPO 1512/1521 FEW008 BKN020

Метеонаблюдения и прогнозы для более 4000 аэропортов (сводки METAR и TAF).

Имеющиеся станции представлены на карте желтыми и красными точками.

Чтобы увидеть название станции, наведите на нее мышь.

Затем щелкните, чтобы увидеть метеонаблюдения и метеопрогнозы.

Управление картой: чтобы увеличить масштаб, щелкните зеленые кнопки с черным крестиком; чтобы уменьшить масштаб, щелкните зеленую кнопку с тире; для просмотра соседних карт щелкайте зеленые стрелки.


METAR-TAF: